sensor_id;sensor_type;location;lat;lon;timestamp;pressure;altitude;pressure_sealevel;temperature;humidity
6194;BME280;3130;41.564;23.280;2022-11-25T00:02:25;98560.22;;;10.35;57.91
6194;BME280;3130;41.564;23.280;2022-11-25T00:04:54;98520.78;;;10.11;57.70
6194;BME280;3130;41.564;23.280;2022-11-25T00:07:21;98473.75;;;9.86;56.41
6194;BME280;3130;41.564;23.280;2022-11-25T00:09:48;98540.94;;;10.30;56.27
6194;BME280;3130;41.564;23.280;2022-11-25T00:12:15;98586.50;;;10.51;55.90
6194;BME280;3130;41.564;23.280;2022-11-25T00:14:42;98578.63;;;10.54;56.05
6194;BME280;3130;41.564;23.280;2022-11-25T00:17:09;98572.69;;;10.54;55.41
6194;BME280;3130;41.564;23.280;2022-11-25T00:19:37;98461.88;;;9.85;55.78
6194;BME280;3130;41.564;23.280;2022-11-25T00:22:05;98393.97;;;9.41;55.22
6194;BME280;3130;41.564;23.280;2022-11-25T00:24:33;98587.84;;;10.57;55.59
6194;BME280;3130;41.564;23.280;2022-11-25T00:27:00;98494.59;;;9.94;56.21
6194;BME280;3130;41.564;23.280;2022-11-25T00:29:29;98590.94;;;10.62;56.13
6194;BME280;3130;41.564;23.280;2022-11-25T00:31:56;98584.09;;;10.62;56.01
6194;BME280;3130;41.564;23.280;2022-11-25T00:34:23;98560.88;;;10.51;56.38
6194;BME280;3130;41.564;23.280;2022-11-25T00:36:50;98577.19;;;10.63;56.23
6194;BME280;3130;41.564;23.280;2022-11-25T00:39:19;98550.31;;;10.43;56.19
6194;BME280;3130;41.564;23.280;2022-11-25T00:41:49;98478.66;;;10.03;56.51
6194;BME280;3130;41.564;23.280;2022-11-25T00:44:33;98578.13;;;10.62;56.92
6194;BME280;3130;41.564;23.280;2022-11-25T00:47:07;98552.03;;;10.43;56.70
6194;BME280;3130;41.564;23.280;2022-11-25T00:49:35;98575.84;;;10.57;56.54
6194;BME280;3130;41.564;23.280;2022-11-25T00:52:03;98576.59;;;10.59;56.88
6194;BME280;3130;41.564;23.280;2022-11-25T00:54:33;98569.81;;;10.58;57.17
6194;BME280;3130;41.564;23.280;2022-11-25T00:57:00;98584.28;;;10.59;57.01
6194;BME280;3130;41.564;23.280;2022-11-25T00:59:27;98586.13;;;10.57;57.18
6194;BME280;3130;41.564;23.280;2022-11-25T01:01:54;98448.84;;;9.76;56.89
6194;BME280;3130;41.564;23.280;2022-11-25T01:04:22;98579.22;;;10.58;57.18
6194;BME280;3130;41.564;23.280;2022-11-25T01:06:49;98582.72;;;10.57;57.36
6194;BME280;3130;41.564;23.280;2022-11-25T01:09:16;98594.81;;;10.55;57.80
6194;BME280;3130;41.564;23.280;2022-11-25T01:11:45;98574.28;;;10.42;57.33
6194;BME280;3130;41.564;23.280;2022-11-25T01:14:12;98561.97;;;10.35;57.91
6194;BME280;3130;41.564;23.280;2022-11-25T01:16:39;98575.44;;;10.51;58.17
6194;BME280;3130;41.564;23.280;2022-11-25T01:19:06;98589.16;;;10.50;58.34
6194;BME280;3130;41.564;23.280;2022-11-25T01:21:34;98596.22;;;10.46;58.16
6194;BME280;3130;41.564;23.280;2022-11-25T01:24:02;98584.25;;;10.47;58.32
6194;BME280;3130;41.564;23.280;2022-11-25T01:26:30;98595.53;;;10.44;58.88
6194;BME280;3130;41.564;23.280;2022-11-25T01:29:00;98576.50;;;10.34;58.80
6194;BME280;3130;41.564;23.280;2022-11-25T01:31:30;98596.44;;;10.43;59.02
6194;BME280;3130;41.564;23.280;2022-11-25T01:33:59;98588.75;;;10.43;58.75
6194;BME280;3130;41.564;23.280;2022-11-25T01:36:27;98593.16;;;10.41;58.28
6194;BME280;3130;41.564;23.280;2022-11-25T01:38:56;98592.44;;;10.39;58.86
6194;BME280;3130;41.564;23.280;2022-11-25T01:41:25;98598.47;;;10.38;58.78
6194;BME280;3130;41.564;23.280;2022-11-25T01:44:10;98591.81;;;10.36;58.96
6194;BME280;3130;41.564;23.280;2022-11-25T01:49:32;98603.06;;;10.33;58.76
6194;BME280;3130;41.564;23.280;2022-11-25T01:52:06;98600.31;;;10.36;58.53
6194;BME280;3130;41.564;23.280;2022-11-25T01:54:41;98598.03;;;10.32;58.96
6194;BME280;3130;41.564;23.280;2022-11-25T01:57:12;98563.34;;;10.14;59.07
6194;BME280;3130;41.564;23.280;2022-11-25T01:59:45;98588.72;;;10.31;59.00
6194;BME280;3130;41.564;23.280;2022-11-25T02:02:13;98583.78;;;10.28;58.78
6194;BME280;3130;41.564;23.280;2022-11-25T02:04:42;98467.00;;;9.59;59.05
6194;BME280;3130;41.564;23.280;2022-11-25T02:07:13;98470.31;;;9.61;59.12
6194;BME280;3130;41.564;23.280;2022-11-25T02:09:42;98567.53;;;10.15;59.19
6194;BME280;3130;41.564;23.280;2022-11-25T02:12:09;98594.13;;;10.26;59.29
6194;BME280;3130;41.564;23.280;2022-11-25T02:14:36;98573.81;;;10.23;59.22
6194;BME280;3130;41.564;23.280;2022-11-25T02:17:05;98589.94;;;10.25;59.04
6194;BME280;3130;41.564;23.280;2022-11-25T02:19:41;98591.66;;;10.25;59.14
6194;BME280;3130;41.564;23.280;2022-11-25T02:22:17;98557.97;;;10.04;59.14
6194;BME280;3130;41.564;23.280;2022-11-25T02:24:46;98589.00;;;10.26;58.57
6194;BME280;3130;41.564;23.280;2022-11-25T02:27:18;98601.81;;;10.26;58.65
6194;BME280;3130;41.564;23.280;2022-11-25T02:29:46;98592.50;;;10.25;59.35
6194;BME280;3130;41.564;23.280;2022-11-25T02:32:14;98599.53;;;10.22;59.58
6194;BME280;3130;41.564;23.280;2022-11-25T02:34:47;98597.88;;;10.21;59.89
6194;BME280;3130;41.564;23.280;2022-11-25T02:37:16;98600.84;;;10.15;60.14
6194;BME280;3130;41.564;23.280;2022-11-25T02:39:45;98512.09;;;9.61;60.03
6194;BME280;3130;41.564;23.280;2022-11-25T02:42:14;98600.31;;;10.10;60.54
6194;BME280;3130;41.564;23.280;2022-11-25T02:44:43;98604.63;;;10.09;60.39
6194;BME280;3130;41.564;23.280;2022-11-25T02:47:10;98601.22;;;10.09;60.05
6194;BME280;3130;41.564;23.280;2022-11-25T02:49:37;98598.97;;;10.04;60.27
6194;BME280;3130;41.564;23.280;2022-11-25T02:52:04;98589.72;;;10.02;60.65
6194;BME280;3130;41.564;23.280;2022-11-25T02:54:31;98604.38;;;10.00;60.39
6194;BME280;3130;41.564;23.280;2022-11-25T02:56:58;98602.44;;;10.03;60.23
6194;BME280;3130;41.564;23.280;2022-11-25T02:59:25;98575.81;;;9.92;60.30
6194;BME280;3130;41.564;23.280;2022-11-25T03:01:54;98589.97;;;9.98;60.24
6194;BME280;3130;41.564;23.280;2022-11-25T03:04:21;98598.25;;;10.02;60.48
6194;BME280;3130;41.564;23.280;2022-11-25T03:06:48;98608.47;;;10.02;60.54
6194;BME280;3130;41.564;23.280;2022-11-25T03:09:15;98603.25;;;10.04;60.46
6194;BME280;3130;41.564;23.280;2022-11-25T03:11:42;98598.13;;;10.04;60.50
6194;BME280;3130;41.564;23.280;2022-11-25T03:14:26;98568.72;;;9.83;60.32
6194;BME280;3130;41.564;23.280;2022-11-25T03:16:55;98569.53;;;9.84;60.13
6194;BME280;3130;41.564;23.280;2022-11-25T03:19:22;98596.69;;;10.00;60.37
6194;BME280;3130;41.564;23.280;2022-11-25T03:21:49;98596.28;;;10.06;60.39
6194;BME280;3130;41.564;23.280;2022-11-25T03:24:16;98600.59;;;10.05;60.17
6194;BME280;3130;41.564;23.280;2022-11-25T03:26:43;98607.28;;;10.08;60.07
6194;BME280;3130;41.564;23.280;2022-11-25T03:29:10;98591.56;;;10.00;60.05
6194;BME280;3130;41.564;23.280;2022-11-25T03:31:38;98610.56;;;10.10;60.17
6194;BME280;3130;41.564;23.280;2022-11-25T03:34:06;98536.13;;;9.59;60.47
6194;BME280;3130;41.564;23.280;2022-11-25T03:36:33;98609.66;;;10.11;60.54
6194;BME280;3130;41.564;23.280;2022-11-25T03:39:01;98615.69;;;10.10;60.69
6194;BME280;3130;41.564;23.280;2022-11-25T03:41:28;98625.19;;;10.08;60.65
6194;BME280;3130;41.564;23.280;2022-11-25T03:43:55;98625.22;;;9.94;60.79
6194;BME280;3130;41.564;23.280;2022-11-25T03:46:22;98637.28;;;10.06;60.78
6194;BME280;3130;41.564;23.280;2022-11-25T03:48:49;98653.75;;;10.02;60.71
6194;BME280;3130;41.564;23.280;2022-11-25T03:51:18;98631.00;;;9.84;61.09
6194;BME280;3130;41.564;23.280;2022-11-25T03:53:45;98644.84;;;9.94;60.92
6194;BME280;3130;41.564;23.280;2022-11-25T03:56:12;98654.28;;;9.93;60.81
6194;BME280;3130;41.564;23.280;2022-11-25T03:58:39;98630.38;;;9.80;60.83
6194;BME280;3130;41.564;23.280;2022-11-25T04:01:07;98655.94;;;9.94;61.03
6194;BME280;3130;41.564;23.280;2022-11-25T04:03:34;98664.44;;;9.95;60.92
6194;BME280;3130;41.564;23.280;2022-11-25T04:06:01;98659.91;;;10.00;60.90
6194;BME280;3130;41.564;23.280;2022-11-25T04:08:30;98657.34;;;10.00;61.07
6194;BME280;3130;41.564;23.280;2022-11-25T04:10:57;98655.66;;;9.98;60.97
6194;BME280;3130;41.564;23.280;2022-11-25T04:13:24;98664.34;;;9.96;60.84
6194;BME280;3130;41.564;23.280;2022-11-25T04:15:50;98668.56;;;9.97;60.53
6194;BME280;3130;41.564;23.280;2022-11-25T04:18:18;98661.88;;;9.95;60.19
6194;BME280;3130;41.564;23.280;2022-11-25T04:20:46;98680.53;;;9.97;60.87
6194;BME280;3130;41.564;23.280;2022-11-25T04:23:13;98686.50;;;9.97;60.56
6194;BME280;3130;41.564;23.280;2022-11-25T04:25:42;98653.94;;;9.71;60.58
6194;BME280;3130;41.564;23.280;2022-11-25T04:28:09;98578.84;;;9.16;60.58
6194;BME280;3130;41.564;23.280;2022-11-25T04:30:36;98701.75;;;9.98;60.64
6194;BME280;3130;41.564;23.280;2022-11-25T04:33:04;98712.09;;;9.97;60.86
6194;BME280;3130;41.564;23.280;2022-11-25T04:35:31;98631.56;;;9.47;60.49
6194;BME280;3130;41.564;23.280;2022-11-25T04:37:58;98624.06;;;9.44;61.13
6194;BME280;3130;41.564;23.280;2022-11-25T04:40:25;98690.06;;;9.67;60.93
6194;BME280;3130;41.564;23.280;2022-11-25T04:42:54;98703.25;;;9.89;61.05
6194;BME280;3130;41.564;23.280;2022-11-25T04:45:21;98710.19;;;9.87;60.77
6194;BME280;3130;41.564;23.280;2022-11-25T04:47:48;98592.53;;;9.15;61.05
6194;BME280;3130;41.564;23.280;2022-11-25T04:50:18;98695.91;;;9.83;61.02
6194;BME280;3130;41.564;23.280;2022-11-25T04:52:45;98664.84;;;9.61;60.76
6194;BME280;3130;41.564;23.280;2022-11-25T04:55:12;98732.03;;;9.92;60.64
6194;BME280;3130;41.564;23.280;2022-11-25T04:57:39;98693.09;;;9.73;60.93
6194;BME280;3130;41.564;23.280;2022-11-25T05:00:09;98727.66;;;9.94;60.85
6194;BME280;3130;41.564;23.280;2022-11-25T05:02:35;98734.44;;;9.95;60.13
6194;BME280;3130;41.564;23.280;2022-11-25T05:05:03;98677.81;;;9.58;60.17
6194;BME280;3130;41.564;23.280;2022-11-25T05:07:31;98754.72;;;9.98;60.31
6194;BME280;3130;41.564;23.280;2022-11-25T05:09:58;98756.47;;;9.98;60.59
6194;BME280;3130;41.564;23.280;2022-11-25T05:12:27;98770.03;;;10.00;60.41
6194;BME280;3130;41.564;23.280;2022-11-25T05:14:55;98761.59;;;9.98;60.33
6194;BME280;3130;41.564;23.280;2022-11-25T05:17:25;98771.94;;;9.96;60.32
6194;BME280;3130;41.564;23.280;2022-11-25T05:19:53;98748.22;;;9.79;60.24
6194;BME280;3130;41.564;23.280;2022-11-25T05:22:22;98783.72;;;9.98;60.47
6194;BME280;3130;41.564;23.280;2022-11-25T05:24:49;98774.66;;;9.93;60.49
6194;BME280;3130;41.564;23.280;2022-11-25T05:27:17;98705.44;;;9.53;60.54
6194;BME280;3130;41.564;23.280;2022-11-25T05:29:44;98796.47;;;10.00;60.53
6194;BME280;3130;41.564;23.280;2022-11-25T05:32:12;98804.22;;;9.98;60.28
6194;BME280;3130;41.564;23.280;2022-11-25T05:34:41;98774.66;;;9.79;60.67
6194;BME280;3130;41.564;23.280;2022-11-25T05:37:09;98810.19;;;9.99;60.59
6194;BME280;3130;41.564;23.280;2022-11-25T05:39:38;98810.25;;;9.98;60.63
6194;BME280;3130;41.564;23.280;2022-11-25T05:42:05;98821.25;;;10.00;60.47
6194;BME280;3130;41.564;23.280;2022-11-25T05:44:32;98830.75;;;9.98;60.29
6194;BME280;3130;41.564;23.280;2022-11-25T05:46:59;98834.13;;;9.98;60.28
6194;BME280;3130;41.564;23.280;2022-11-25T05:49:26;98843.53;;;9.98;60.47
6194;BME280;3130;41.564;23.280;2022-11-25T05:51:54;98849.25;;;10.02;60.93
6194;BME280;3130;41.564;23.280;2022-11-25T05:54:21;98852.75;;;10.02;60.62
6194;BME280;3130;41.564;23.280;2022-11-25T05:56:48;98846.22;;;9.96;60.79
6194;BME280;3130;41.564;23.280;2022-11-25T05:59:15;98741.03;;;9.28;60.90
6194;BME280;3130;41.564;23.280;2022-11-25T06:01:43;98722.91;;;9.17;60.42
6194;BME280;3130;41.564;23.280;2022-11-25T06:04:10;98862.63;;;10.07;60.71
6194;BME280;3130;41.564;23.280;2022-11-25T06:06:37;98869.31;;;10.10;60.54
6194;BME280;3130;41.564;23.280;2022-11-25T06:09:05;98875.25;;;10.10;60.77
6194;BME280;3130;41.564;23.280;2022-11-25T06:11:32;98833.63;;;9.78;60.40
6194;BME280;3130;41.564;23.280;2022-11-25T06:13:59;98848.63;;;9.99;60.70
6194;BME280;3130;41.564;23.280;2022-11-25T06:16:26;98851.09;;;10.01;60.47
6194;BME280;3130;41.564;23.280;2022-11-25T06:18:53;98870.03;;;10.12;60.91
6194;BME280;3130;41.564;23.280;2022-11-25T06:21:20;98862.25;;;10.13;60.76
6194;BME280;3130;41.564;23.280;2022-11-25T06:23:47;98865.56;;;10.15;60.68
6194;BME280;3130;41.564;23.280;2022-11-25T06:26:18;98848.91;;;10.08;60.84
6194;BME280;3130;41.564;23.280;2022-11-25T06:28:46;98877.84;;;10.24;60.74
6194;BME280;3130;41.564;23.280;2022-11-25T06:31:16;98799.81;;;9.73;60.50
6194;BME280;3130;41.564;23.280;2022-11-25T06:33:45;98890.19;;;10.32;60.34
6194;BME280;3130;41.564;23.280;2022-11-25T06:36:13;98869.97;;;10.27;59.96
6194;BME280;3130;41.564;23.280;2022-11-25T06:38:42;98880.22;;;10.41;59.99
6194;BME280;3130;41.564;23.280;2022-11-25T06:41:09;98892.88;;;10.44;60.04
6194;BME280;3130;41.564;23.280;2022-11-25T06:43:37;98894.22;;;10.50;59.69
6194;BME280;3130;41.564;23.280;2022-11-25T06:46:06;98900.91;;;10.52;59.46
6194;BME280;3130;41.564;23.280;2022-11-25T06:48:34;98869.50;;;10.35;59.89
6194;BME280;3130;41.564;23.280;2022-11-25T06:51:02;98913.38;;;10.58;59.44
6194;BME280;3130;41.564;23.280;2022-11-25T06:53:31;98895.75;;;10.66;58.58
6194;BME280;3130;41.564;23.280;2022-11-25T06:56:04;98857.06;;;10.43;58.40
6194;BME280;3130;41.564;23.280;2022-11-25T06:58:32;98889.38;;;10.59;58.43
6194;BME280;3130;41.564;23.280;2022-11-25T07:01:02;98908.78;;;10.77;58.21
6194;BME280;3130;41.564;23.280;2022-11-25T07:03:30;98883.84;;;10.65;57.98
6194;BME280;3130;41.564;23.280;2022-11-25T07:05:57;98899.03;;;10.82;58.07
6194;BME280;3130;41.564;23.280;2022-11-25T07:08:25;98898.88;;;10.85;57.71
6194;BME280;3130;41.564;23.280;2022-11-25T07:10:52;98923.56;;;11.00;56.89
6194;BME280;3130;41.564;23.280;2022-11-25T07:13:20;98920.91;;;11.42;55.91
6194;BME280;3130;41.564;23.280;2022-11-25T07:15:47;98930.94;;;11.85;53.95
6194;BME280;3130;41.564;23.280;2022-11-25T07:18:16;98907.56;;;11.63;53.05
6194;BME280;3130;41.564;23.280;2022-11-25T07:20:43;98916.16;;;11.76;52.92
6194;BME280;3130;41.564;23.280;2022-11-25T07:23:10;98792.09;;;11.62;51.54
6194;BME280;3130;41.564;23.280;2022-11-25T07:25:37;98923.78;;;13.14;48.95
6194;BME280;3130;41.564;23.280;2022-11-25T07:28:04;98918.41;;;13.64;46.27
6194;BME280;3130;41.564;23.280;2022-11-25T07:30:31;98875.34;;;14.11;43.77
6194;BME280;3130;41.564;23.280;2022-11-25T07:32:59;98887.38;;;14.56;42.56
6194;BME280;3130;41.564;23.280;2022-11-25T07:35:27;98927.50;;;14.71;41.85
6194;BME280;3130;41.564;23.280;2022-11-25T07:37:54;98942.56;;;15.52;40.16
6194;BME280;3130;41.564;23.280;2022-11-25T07:40:22;98909.94;;;16.03;37.97
6194;BME280;3130;41.564;23.280;2022-11-25T07:42:49;98924.22;;;16.59;37.72
6194;BME280;3130;41.564;23.280;2022-11-25T07:45:16;98945.63;;;16.61;37.30
6194;BME280;3130;41.564;23.280;2022-11-25T07:47:43;98839.91;;;15.95;36.73
6194;BME280;3130;41.564;23.280;2022-11-25T07:50:10;98920.56;;;16.71;36.94
6194;BME280;3130;41.564;23.280;2022-11-25T07:52:39;98939.13;;;16.46;37.68
6194;BME280;3130;41.564;23.280;2022-11-25T07:55:07;98896.19;;;16.23;37.10
6194;BME280;3130;41.564;23.280;2022-11-25T07:57:34;98930.72;;;16.53;36.81
6194;BME280;3130;41.564;23.280;2022-11-25T08:00:02;98934.25;;;16.52;36.79
6194;BME280;3130;41.564;23.280;2022-11-25T08:02:29;98942.16;;;16.51;36.44
6194;BME280;3130;41.564;23.280;2022-11-25T08:04:56;98933.75;;;16.17;36.93
6194;BME280;3130;41.564;23.280;2022-11-25T08:07:24;98933.47;;;16.00;37.07
6194;BME280;3130;41.564;23.280;2022-11-25T08:09:52;98934.44;;;15.57;37.35
6194;BME280;3130;41.564;23.280;2022-11-25T08:12:19;98932.41;;;15.18;38.24
6194;BME280;3130;41.564;23.280;2022-11-25T08:14:46;98948.03;;;15.06;38.75
6194;BME280;3130;41.564;23.280;2022-11-25T08:17:13;98948.50;;;14.78;39.21
6194;BME280;3130;41.564;23.280;2022-11-25T08:19:40;98950.59;;;14.62;39.84
6194;BME280;3130;41.564;23.280;2022-11-25T08:22:07;98945.59;;;14.15;39.94
6194;BME280;3130;41.564;23.280;2022-11-25T08:24:53;98937.84;;;14.15;40.45
6194;BME280;3130;41.564;23.280;2022-11-25T08:27:20;98956.16;;;14.00;41.19
6194;BME280;3130;41.564;23.280;2022-11-25T08:29:48;98945.81;;;13.89;41.72
6194;BME280;3130;41.564;23.280;2022-11-25T08:32:15;98947.09;;;13.60;41.69
6194;BME280;3130;41.564;23.280;2022-11-25T08:34:42;98959.19;;;13.47;42.48
6194;BME280;3130;41.564;23.280;2022-11-25T08:37:09;98922.00;;;13.15;42.58
6194;BME280;3130;41.564;23.280;2022-11-25T08:39:36;98944.56;;;13.24;42.81
6194;BME280;3130;41.564;23.280;2022-11-25T08:42:05;98954.59;;;13.39;43.43
6194;BME280;3130;41.564;23.280;2022-11-25T08:44:33;98955.22;;;13.43;43.82
6194;BME280;3130;41.564;23.280;2022-11-25T08:47:00;98951.28;;;13.37;42.82
6194;BME280;3130;41.564;23.280;2022-11-25T08:49:27;98966.56;;;13.28;43.17
6194;BME280;3130;41.564;23.280;2022-11-25T08:51:55;98884.56;;;12.86;43.43
6194;BME280;3130;41.564;23.280;2022-11-25T08:54:24;98964.63;;;13.31;43.41
6194;BME280;3130;41.564;23.280;2022-11-25T08:56:51;98950.47;;;13.37;43.62
6194;BME280;3130;41.564;23.280;2022-11-25T08:59:19;98931.56;;;13.25;43.17
6194;BME280;3130;41.564;23.280;2022-11-25T09:01:49;98958.00;;;13.40;43.98
6194;BME280;3130;41.564;23.280;2022-11-25T09:04:16;98939.47;;;13.35;44.22
6194;BME280;3130;41.564;23.280;2022-11-25T09:06:44;98951.28;;;13.37;43.09
6194;BME280;3130;41.564;23.280;2022-11-25T09:09:11;98938.34;;;13.26;43.81
6194;BME280;3130;41.564;23.280;2022-11-25T09:11:38;98965.03;;;13.25;43.86
6194;BME280;3130;41.564;23.280;2022-11-25T09:14:06;98923.31;;;13.20;43.09
6194;BME280;3130;41.564;23.280;2022-11-25T09:16:35;98925.09;;;13.20;42.59
6194;BME280;3130;41.564;23.280;2022-11-25T09:19:02;98932.31;;;13.15;42.82
6194;BME280;3130;41.564;23.280;2022-11-25T09:21:29;98928.47;;;13.20;43.29
6194;BME280;3130;41.564;23.280;2022-11-25T09:23:56;98906.28;;;13.07;43.36
6194;BME280;3130;41.564;23.280;2022-11-25T09:26:24;98926.78;;;13.32;43.24
6194;BME280;3130;41.564;23.280;2022-11-25T09:28:52;98925.06;;;13.32;42.81
6194;BME280;3130;41.564;23.280;2022-11-25T09:31:20;98917.88;;;13.25;43.12
6194;BME280;3130;41.564;23.280;2022-11-25T09:33:49;98930.81;;;13.36;43.07
6194;BME280;3130;41.564;23.280;2022-11-25T09:36:17;98922.47;;;13.32;42.38
6194;BME280;3130;41.564;23.280;2022-11-25T09:38:45;98947.94;;;13.48;42.96
6194;BME280;3130;41.564;23.280;2022-11-25T09:41:23;98933.81;;;13.53;42.86
6194;BME280;3130;41.564;23.280;2022-11-25T09:44:08;98887.59;;;13.16;42.33
6194;BME280;3130;41.564;23.280;2022-11-25T09:47:04;98954.41;;;13.53;43.08
6194;BME280;3130;41.564;23.280;2022-11-25T09:49:48;98950.69;;;13.57;42.53
6194;BME280;3130;41.564;23.280;2022-11-25T09:52:25;98956.16;;;13.65;42.69
6194;BME280;3130;41.564;23.280;2022-11-25T09:55:03;98943.75;;;13.70;41.92
6194;BME280;3130;41.564;23.280;2022-11-25T09:57:43;98955.69;;;13.71;41.84
6194;BME280;3130;41.564;23.280;2022-11-25T10:00:15;98961.69;;;13.72;41.88
6194;BME280;3130;41.564;23.280;2022-11-25T10:02:49;98951.59;;;13.69;42.43
6194;BME280;3130;41.564;23.280;2022-11-25T10:05:22;98946.56;;;13.67;42.06
6194;BME280;3130;41.564;23.280;2022-11-25T10:07:53;98958.66;;;13.78;41.26
6194;BME280;3130;41.564;23.280;2022-11-25T10:10:24;98947.94;;;13.71;42.11
6194;BME280;3130;41.564;23.280;2022-11-25T10:12:53;98961.25;;;13.78;41.55
6194;BME280;3130;41.564;23.280;2022-11-25T10:15:25;98948.41;;;13.89;41.92
6194;BME280;3130;41.564;23.280;2022-11-25T10:17:55;98935.53;;;14.00;41.84
6194;BME280;3130;41.564;23.280;2022-11-25T10:20:28;98950.28;;;13.98;40.72
6194;BME280;3130;41.564;23.280;2022-11-25T10:23:00;98916.22;;;13.71;40.56
6194;BME280;3130;41.564;23.280;2022-11-25T10:25:30;98951.47;;;13.94;40.94
6194;BME280;3130;41.564;23.280;2022-11-25T10:28:01;98946.69;;;14.00;41.17
6194;BME280;3130;41.564;23.280;2022-11-25T10:30:34;98908.22;;;13.86;40.70
6194;BME280;3130;41.564;23.280;2022-11-25T10:33:08;98939.44;;;14.05;41.58
6194;BME280;3130;41.564;23.280;2022-11-25T10:35:46;98956.31;;;14.09;40.86
6194;BME280;3130;41.564;23.280;2022-11-25T10:38:20;98928.34;;;14.15;41.61
6194;BME280;3130;41.564;23.280;2022-11-25T10:40:50;98903.72;;;14.11;41.14
6194;BME280;3130;41.564;23.280;2022-11-25T10:43:18;98784.34;;;13.31;40.42
6194;BME280;3130;41.564;23.280;2022-11-25T10:45:49;98921.31;;;14.17;41.25
6194;BME280;3130;41.564;23.280;2022-11-25T10:48:42;98915.50;;;14.26;40.95
6194;BME280;3130;41.564;23.280;2022-11-25T10:51:20;98946.69;;;14.34;40.76
6194;BME280;3130;41.564;23.280;2022-11-25T10:54:09;98921.81;;;14.33;40.56
6194;BME280;3130;41.564;23.280;2022-11-25T10:56:42;98925.81;;;14.26;40.38
6194;BME280;3130;41.564;23.280;2022-11-25T10:59:13;98913.63;;;14.28;41.03
6194;BME280;3130;41.564;23.280;2022-11-25T11:01:47;98911.41;;;14.35;40.66
6194;BME280;3130;41.564;23.280;2022-11-25T11:04:14;98905.19;;;14.37;41.26
6194;BME280;3130;41.564;23.280;2022-11-25T11:06:45;98905.19;;;14.37;41.07
6194;BME280;3130;41.564;23.280;2022-11-25T11:09:34;98916.91;;;14.41;40.75
6194;BME280;3130;41.564;23.280;2022-11-25T11:12:14;98904.03;;;14.41;41.30
6194;BME280;3130;41.564;23.280;2022-11-25T11:14:43;98926.66;;;14.49;40.73
6194;BME280;3130;41.564;23.280;2022-11-25T11:17:28;98858.63;;;14.17;41.00
6194;BME280;3130;41.564;23.280;2022-11-25T11:20:02;98916.59;;;14.57;41.51
6194;BME280;3130;41.564;23.280;2022-11-25T11:22:31;98918.09;;;14.70;40.70
6194;BME280;3130;41.564;23.280;2022-11-25T11:25:06;98918.00;;;14.72;40.24
6194;BME280;3130;41.564;23.280;2022-11-25T11:27:35;98883.63;;;14.49;40.55
6194;BME280;3130;41.564;23.280;2022-11-25T11:30:08;98908.97;;;14.77;40.17
6194;BME280;3130;41.564;23.280;2022-11-25T11:32:37;98873.16;;;14.62;40.47
6194;BME280;3130;41.564;23.280;2022-11-25T11:35:16;98920.47;;;14.84;40.50
6194;BME280;3130;41.564;23.280;2022-11-25T11:37:52;98932.91;;;14.79;39.75
6194;BME280;3130;41.564;23.280;2022-11-25T11:40:28;98913.06;;;14.69;40.29
6194;BME280;3130;41.564;23.280;2022-11-25T11:43:04;98936.66;;;14.75;40.11
6194;BME280;3130;41.564;23.280;2022-11-25T11:45:45;98941.81;;;14.75;39.82
6194;BME280;3130;41.564;23.280;2022-11-25T11:48:24;98954.38;;;14.80;40.23
6194;BME280;3130;41.564;23.280;2022-11-25T11:51:00;98963.75;;;14.70;39.89
6194;BME280;3130;41.564;23.280;2022-11-25T11:53:38;98960.00;;;14.74;39.91
6194;BME280;3130;41.564;23.280;2022-11-25T11:56:13;98959.31;;;14.72;39.78
6194;BME280;3130;41.564;23.280;2022-11-25T11:58:56;98966.22;;;14.71;40.08
6194;BME280;3130;41.564;23.280;2022-11-25T12:01:39;98976.88;;;14.67;39.83
6194;BME280;3130;41.564;23.280;2022-11-25T12:04:15;98920.06;;;14.23;39.96
6194;BME280;3130;41.564;23.280;2022-11-25T12:06:50;98968.06;;;14.47;39.91
6194;BME280;3130;41.564;23.280;2022-11-25T12:09:22;98949.16;;;14.36;40.43
6194;BME280;3130;41.564;23.280;2022-11-25T12:11:59;98994.59;;;14.49;39.96
6194;BME280;3130;41.564;23.280;2022-11-25T12:14:34;98949.59;;;14.19;40.53
6194;BME280;3130;41.564;23.280;2022-11-25T12:17:06;99005.16;;;14.57;40.99
6194;BME280;3130;41.564;23.280;2022-11-25T12:19:41;98993.44;;;14.64;40.83
6194;BME280;3130;41.564;23.280;2022-11-25T12:22:16;99007.38;;;14.62;41.51
6194;BME280;3130;41.564;23.280;2022-11-25T12:24:50;99022.97;;;14.49;41.52
6194;BME280;3130;41.564;23.280;2022-11-25T12:27:22;99013.22;;;14.18;41.86
6194;BME280;3130;41.564;23.280;2022-11-25T12:29:52;99008.56;;;14.00;42.80
6194;BME280;3130;41.564;23.280;2022-11-25T12:32:46;99024.84;;;14.01;42.76
6194;BME280;3130;41.564;23.280;2022-11-25T12:35:21;99013.34;;;13.94;43.07
6194;BME280;3130;41.564;23.280;2022-11-25T12:37:57;99037.69;;;13.90;42.87
6194;BME280;3130;41.564;23.280;2022-11-25T12:40:32;99027.59;;;13.87;43.05
6194;BME280;3130;41.564;23.280;2022-11-25T12:43:09;99020.69;;;13.87;42.72
6194;BME280;3130;41.564;23.280;2022-11-25T12:45:38;99015.41;;;13.89;42.69
6194;BME280;3130;41.564;23.280;2022-11-25T12:48:08;98976.41;;;13.70;42.45
6194;BME280;3130;41.564;23.280;2022-11-25T12:50:44;99029.13;;;13.89;42.18
6194;BME280;3130;41.564;23.280;2022-11-25T12:53:25;98955.25;;;13.54;42.34
6194;BME280;3130;41.564;23.280;2022-11-25T12:55:57;99014.06;;;13.96;42.10
6194;BME280;3130;41.564;23.280;2022-11-25T12:58:41;99000.50;;;14.05;41.77
6194;BME280;3130;41.564;23.280;2022-11-25T13:01:35;99002.72;;;14.09;42.05
6194;BME280;3130;41.564;23.280;2022-11-25T13:07:25;99015.75;;;14.07;41.35
6194;BME280;3130;41.564;23.280;2022-11-25T13:10:18;99017.31;;;13.98;41.23
6194;BME280;3130;41.564;23.280;2022-11-25T13:13:11;98994.47;;;13.93;41.15
6194;BME280;3130;41.564;23.280;2022-11-25T13:15:44;99017.22;;;13.99;41.42
6194;BME280;3130;41.564;23.280;2022-11-25T13:18:14;98997.41;;;14.00;41.22
6194;BME280;3130;41.564;23.280;2022-11-25T13:20:44;98935.06;;;13.48;41.27
6194;BME280;3130;41.564;23.280;2022-11-25T13:23:22;98987.03;;;13.78;40.95
6194;BME280;3130;41.564;23.280;2022-11-25T13:25:51;98999.63;;;13.70;41.47
6194;BME280;3130;41.564;23.280;2022-11-25T13:28:33;98996.75;;;13.62;41.53
6194;BME280;3130;41.564;23.280;2022-11-25T13:31:19;99009.03;;;13.58;41.57
6194;BME280;3130;41.564;23.280;2022-11-25T13:34:02;98998.84;;;13.57;41.65
6194;BME280;3130;41.564;23.280;2022-11-25T13:36:44;98934.38;;;13.10;41.93